createdAt,value
2023-06-23T00:00:42.508Z,1993.90
2023-06-23T00:05:41.734Z,1999.90
2023-06-23T00:10:38.963Z,1999.90
2023-06-23T00:15:38.187Z,1999.90
2023-06-23T00:20:37.422Z,1999.90
2023-06-23T00:25:37.695Z,1999.90
2023-06-23T00:30:37.927Z,1999.90
2023-06-23T00:35:35.130Z,1999.90
2023-06-23T00:40:38.849Z,1959.00
2023-06-23T00:45:35.411Z,1999.90
2023-06-23T00:50:57.424Z,1997.00
2023-06-23T00:55:33.902Z,1999.90
2023-06-23T01:00:33.812Z,1999.90
2023-06-23T01:05:34.391Z,1999.90
2023-06-23T01:10:32.279Z,1999.90
2023-06-23T01:15:32.530Z,1999.90
2023-06-23T01:20:39.722Z,1999.90
2023-06-23T01:25:37.705Z,1999.90
2023-06-23T01:30:39.545Z,1999.90
2023-06-23T01:35:29.528Z,1999.90
2023-06-23T01:40:50.617Z,1999.90
2023-06-23T01:45:36.413Z,1999.90
2023-06-23T01:50:25.412Z,1999.90
2023-06-23T01:55:29.820Z,1999.90
2023-06-23T02:00:24.114Z,1999.90
2023-06-23T02:05:22.236Z,1999.90
2023-06-23T02:10:24.960Z,1999.90
2023-06-23T02:15:20.765Z,1999.90
2023-06-23T02:20:21.032Z,1999.90
2023-06-23T02:25:22.220Z,1999.90
2023-06-23T02:30:21.548Z,1999.90
2023-06-23T02:35:17.521Z,1999.90
2023-06-23T02:40:38.374Z,1999.90
2023-06-23T02:45:21.070Z,1999.90
2023-06-23T02:50:25.447Z,1999.90
2023-06-23T02:55:36.192Z,1999.90
2023-06-23T03:00:22.188Z,1999.90
2023-06-23T03:05:12.904Z,1985.60
2023-06-23T03:10:14.869Z,1999.90
2023-06-23T03:15:14.341Z,1999.90
2023-06-23T03:20:10.677Z,1999.90
2023-06-23T03:25:13.296Z,1999.90
2023-06-23T03:30:11.653Z,1999.90
2023-06-23T03:35:08.386Z,1999.90
2023-06-23T03:40:08.520Z,1999.90
2023-06-23T03:45:13.017Z,1999.90
2023-06-23T03:50:09.668Z,1999.90
2023-06-23T03:55:07.226Z,1999.90
2023-06-23T04:00:06.377Z,1999.90
2023-06-23T04:05:04.591Z,1999.90
2023-06-23T14:09:54.296Z,1619.80
2023-06-23T14:14:51.517Z,1638.90
2023-06-23T14:19:51.754Z,1894.20
2023-06-23T14:24:52.028Z,1873.80
2023-06-23T14:29:51.247Z,1934.00
2023-06-23T14:34:50.502Z,1930.70
2023-06-23T14:39:49.728Z,1963.20
2023-06-23T14:44:48.956Z,1819.10
2023-06-23T14:49:47.198Z,1724.90
2023-06-23T14:54:46.462Z,1766.10
2023-06-23T14:59:45.725Z,1745.50
2023-06-23T15:04:44.968Z,1565.40
2023-06-23T15:09:45.175Z,1905.10
2023-06-23T15:14:43.430Z,1840.60
2023-06-23T15:19:43.669Z,1703.10
2023-06-23T15:24:42.893Z,1767.00
2023-06-23T15:29:42.130Z,1647.90
2023-06-23T15:34:40.393Z,1750.40
2023-06-23T15:39:39.629Z,1814.80
2023-06-23T15:44:38.864Z,1755.20
2023-06-23T15:49:39.076Z,1767.70
2023-06-23T15:54:37.393Z,1838.50
2023-06-23T15:59:36.637Z,1882.20
2023-06-23T16:04:35.930Z,1851.30
2023-06-23T16:09:35.164Z,1983.50
2023-06-23T16:14:34.431Z,1999.90
2023-06-23T16:19:33.695Z,1954.30
2023-06-23T16:24:32.980Z,1874.50
2023-06-23T16:29:32.248Z,1920.70
2023-06-23T16:34:33.496Z,1999.90
2023-06-23T16:39:31.754Z,1999.90
2023-06-23T16:44:30.020Z,1889.80
2023-06-23T16:49:29.284Z,1949.00
2023-06-23T16:54:28.600Z,1894.10
2023-06-23T16:59:28.884Z,1979.50
2023-06-23T17:04:27.141Z,1800.90
2023-06-23T17:09:26.436Z,1844.20
2023-06-23T17:14:26.650Z,1461.40
2023-06-23T17:19:25.890Z,1601.50
2023-06-23T17:24:24.106Z,1837.60
2023-06-23T17:29:23.381Z,1768.00
2023-06-23T17:34:22.679Z,1775.10
2023-06-23T17:39:22.957Z,1771.40
2023-06-23T17:44:22.238Z,1788.30
2023-06-23T17:49:21.481Z,1912.40
2023-06-23T17:54:19.760Z,1903.50
2023-06-23T17:59:20.066Z,1999.90
2023-06-23T18:04:18.374Z,1999.90
2023-06-23T18:09:17.709Z,1999.90
2023-06-23T18:14:19.069Z,1999.90
2023-06-23T18:19:19.365Z,1999.90
2023-06-23T18:24:15.476Z,1999.90
2023-06-23T18:29:15.811Z,1999.90
2023-06-23T18:34:14.099Z,1999.90
2023-06-23T18:39:14.366Z,1999.90
2023-06-23T18:44:13.781Z,1999.90
2023-06-23T18:49:13.820Z,1999.90
2023-06-23T18:54:13.096Z,1999.90
2023-06-23T18:59:10.319Z,1999.90
2023-06-23T19:04:10.688Z,1999.90
2023-06-23T19:09:08.755Z,1999.90
2023-06-23T19:14:08.021Z,1999.90
2023-06-23T19:19:07.316Z,1999.90
2023-06-23T19:24:07.613Z,1999.90
2023-06-23T19:29:05.891Z,1999.90
2023-06-23T19:34:06.183Z,1999.90
2023-06-23T19:39:04.526Z,1999.90
2023-06-23T19:44:03.765Z,1999.90
2023-06-23T19:49:04.053Z,1999.90
2023-06-23T19:54:03.345Z,1999.90
2023-06-23T19:59:02.656Z,1999.90
2023-06-23T20:04:01.919Z,1999.90
2023-06-23T20:09:00.200Z,1999.90
2023-06-23T20:14:00.476Z,1999.90
2023-06-23T20:18:59.747Z,1999.90
2023-06-23T20:24:00.955Z,1999.90
2023-06-23T20:28:57.205Z,1999.90
2023-06-23T20:33:57.457Z,1999.90
2023-06-23T20:38:55.720Z,1999.90
2023-06-23T20:43:54.989Z,1999.90
2023-06-23T20:48:56.219Z,1999.90
2023-06-23T20:53:53.514Z,1999.90
2023-06-23T20:58:53.727Z,1999.90
2023-06-23T21:03:53.019Z,1999.90
2023-06-23T21:08:52.303Z,1999.90
2023-06-23T21:13:50.573Z,1999.90
2023-06-23T21:18:49.875Z,1999.90
2023-06-23T21:23:49.137Z,1999.90
2023-06-23T21:28:48.411Z,1999.90
2023-06-23T21:33:49.685Z,1999.90
2023-06-23T21:38:48.989Z,1999.90
2023-06-23T21:43:47.211Z,1999.90
2023-06-23T21:48:45.453Z,1999.90
2023-06-23T21:53:46.693Z,1722.20
2023-06-23T21:58:44.898Z,1734.90
2023-06-23T22:03:43.207Z,1999.90
2023-06-23T22:08:44.471Z,1999.90
2023-06-23T22:13:41.710Z,1999.90
2023-06-23T22:18:49.485Z,1999.90
2023-06-23T22:23:40.103Z,1999.90
2023-06-23T22:28:39.386Z,1999.90
2023-06-23T22:33:38.634Z,1999.90
2023-06-23T22:38:38.950Z,1999.90
2023-06-23T22:43:37.179Z,1999.90
2023-06-23T22:48:37.409Z,1999.90
2023-06-23T22:53:35.658Z,1999.90
2023-06-23T22:58:35.914Z,1999.90
2023-06-23T23:03:34.301Z,1999.90
2023-06-23T23:08:34.435Z,1999.90
2023-06-23T23:13:32.676Z,1999.90
2023-06-23T23:18:31.923Z,1999.90
2023-06-23T23:23:31.217Z,1999.90
2023-06-23T23:28:31.519Z,1999.90
2023-06-23T23:33:30.828Z,1999.90
2023-06-23T23:38:31.082Z,1999.90
2023-06-23T23:43:29.301Z,1999.90
2023-06-23T23:48:27.552Z,1999.90
2023-06-23T23:53:25.740Z,1999.90
2023-06-23T23:58:26.054Z,1999.90
